sensor_id;sensor_type;location;lat;lon;timestamp;pressure;altitude;pressure_sealevel;temperature;humidity
10706;BME280;5404;42.656;23.336;2023-03-20T00:00:46;95197.38;;;5.15;100.00
10706;BME280;5404;42.656;23.336;2023-03-20T00:03:12;95185.66;;;5.06;100.00
10706;BME280;5404;42.656;23.336;2023-03-20T00:05:38;95191.50;;;5.08;100.00
10706;BME280;5404;42.656;23.336;2023-03-20T00:08:05;95175.31;;;5.00;100.00
10706;BME280;5404;42.656;23.336;2023-03-20T00:10:39;95181.75;;;5.09;100.00
10706;BME280;5404;42.656;23.336;2023-03-20T00:13:06;95189.63;;;5.04;100.00
10706;BME280;5404;42.656;23.336;2023-03-20T00:15:37;95187.91;;;4.93;100.00
10706;BME280;5404;42.656;23.336;2023-03-20T00:18:16;95188.69;;;4.88;100.00
10706;BME280;5404;42.656;23.336;2023-03-20T00:20:47;95181.44;;;4.78;100.00
10706;BME280;5404;42.656;23.336;2023-03-20T00:23:15;95190.22;;;4.84;100.00
10706;BME280;5404;42.656;23.336;2023-03-20T00:25:42;95184.06;;;4.78;100.00
10706;BME280;5404;42.656;23.336;2023-03-20T00:28:28;95182.91;;;4.69;100.00
10706;BME280;5404;42.656;23.336;2023-03-20T00:30:54;95186.25;;;4.60;100.00
10706;BME280;5404;42.656;23.336;2023-03-20T00:33:20;95180.63;;;4.51;100.00
10706;BME280;5404;42.656;23.336;2023-03-20T00:35:45;95182.09;;;4.42;100.00
10706;BME280;5404;42.656;23.336;2023-03-20T00:38:11;95182.28;;;4.36;100.00
10706;BME280;5404;42.656;23.336;2023-03-20T00:40:36;95175.50;;;4.40;100.00
10706;BME280;5404;42.656;23.336;2023-03-20T00:43:02;95173.41;;;4.42;100.00
10706;BME280;5404;42.656;23.336;2023-03-20T00:45:30;95176.56;;;4.44;100.00
10706;BME280;5404;42.656;23.336;2023-03-20T00:47:57;95177.88;;;4.41;100.00
10706;BME280;5404;42.656;23.336;2023-03-20T00:50:25;95176.78;;;4.37;100.00
10706;BME280;5404;42.656;23.336;2023-03-20T00:52:51;95177.22;;;4.29;100.00
10706;BME280;5404;42.656;23.336;2023-03-20T00:55:19;95184.38;;;4.34;100.00
10706;BME280;5404;42.656;23.336;2023-03-20T00:57:47;95188.31;;;4.31;100.00
10706;BME280;5404;42.656;23.336;2023-03-20T01:00:26;95181.19;;;4.32;100.00
10706;BME280;5404;42.656;23.336;2023-03-20T01:02:56;95172.91;;;4.23;100.00
10706;BME280;5404;42.656;23.336;2023-03-20T01:05:22;95163.84;;;4.14;100.00
10706;BME280;5404;42.656;23.336;2023-03-20T01:07:48;95173.28;;;4.10;100.00
10706;BME280;5404;42.656;23.336;2023-03-20T01:10:14;95172.16;;;4.06;100.00
10706;BME280;5404;42.656;23.336;2023-03-20T01:12:41;95168.25;;;4.09;100.00
10706;BME280;5404;42.656;23.336;2023-03-20T01:15:29;95168.25;;;4.09;100.00
10706;BME280;5404;42.656;23.336;2023-03-20T01:17:55;95160.28;;;4.04;100.00
10706;BME280;5404;42.656;23.336;2023-03-20T01:20:23;95164.13;;;3.96;100.00
10706;BME280;5404;42.656;23.336;2023-03-20T01:22:49;95158.31;;;3.94;100.00
10706;BME280;5404;42.656;23.336;2023-03-20T01:25:15;95152.00;;;3.95;100.00
10706;BME280;5404;42.656;23.336;2023-03-20T01:27:44;95166.59;;;4.03;100.00
10706;BME280;5404;42.656;23.336;2023-03-20T01:30:31;95166.47;;;3.93;100.00
10706;BME280;5404;42.656;23.336;2023-03-20T01:32:59;95159.09;;;3.95;100.00
10706;BME280;5404;42.656;23.336;2023-03-20T01:35:27;95161.81;;;4.00;100.00
10706;BME280;5404;42.656;23.336;2023-03-20T01:37:53;95160.69;;;3.96;100.00
10706;BME280;5404;42.656;23.336;2023-03-20T01:40:29;95171.47;;;3.94;100.00
10706;BME280;5404;42.656;23.336;2023-03-20T01:42:56;95163.19;;;3.86;100.00
10706;BME280;5404;42.656;23.336;2023-03-20T01:45:27;95161.72;;;3.73;100.00
10706;BME280;5404;42.656;23.336;2023-03-20T01:47:54;95168.59;;;3.74;100.00
10706;BME280;5404;42.656;23.336;2023-03-20T01:50:29;95171.22;;;3.74;100.00
10706;BME280;5404;42.656;23.336;2023-03-20T01:53:24;95175.88;;;3.67;100.00
10706;BME280;5404;42.656;23.336;2023-03-20T01:55:53;95171.34;;;3.63;100.00
10706;BME280;5404;42.656;23.336;2023-03-20T01:58:36;95174.53;;;3.65;100.00
10706;BME280;5404;42.656;23.336;2023-03-20T02:01:09;95176.97;;;3.71;100.00
10706;BME280;5404;42.656;23.336;2023-03-20T02:03:36;95160.53;;;3.64;100.00
10706;BME280;5404;42.656;23.336;2023-03-20T02:06:03;95159.97;;;3.62;100.00
10706;BME280;5404;42.656;23.336;2023-03-20T02:08:31;95178.31;;;3.74;100.00
10706;BME280;5404;42.656;23.336;2023-03-20T02:11:01;95163.81;;;3.71;100.00
10706;BME280;5404;42.656;23.336;2023-03-20T02:13:30;95169.16;;;3.76;100.00
10706;BME280;5404;42.656;23.336;2023-03-20T02:15:58;95174.09;;;3.73;100.00
10706;BME280;5404;42.656;23.336;2023-03-20T02:18:24;95163.19;;;3.64;100.00
10706;BME280;5404;42.656;23.336;2023-03-20T02:26:49;95078.09;;;3.09;100.00
10706;BME280;5404;42.656;23.336;2023-03-20T02:40:20;95176.78;;;3.39;100.00
10706;BME280;5404;42.656;23.336;2023-03-20T02:45:28;95178.78;;;3.49;100.00
10706;BME280;5404;42.656;23.336;2023-03-20T02:53:21;95163.91;;;3.43;100.00
10706;BME280;5404;42.656;23.336;2023-03-20T02:56:01;95166.56;;;3.43;100.00
10706;BME280;5404;42.656;23.336;2023-03-20T03:04:24;95158.34;;;3.39;100.00
10706;BME280;5404;42.656;23.336;2023-03-20T03:06:51;95148.38;;;3.41;100.00
10706;BME280;5404;42.656;23.336;2023-03-20T03:09:28;95159.22;;;3.45;100.00
10706;BME280;5404;42.656;23.336;2023-03-20T03:11:59;95164.41;;;3.40;100.00
10706;BME280;5404;42.656;23.336;2023-03-20T03:14:43;95163.22;;;3.31;100.00
10706;BME280;5404;42.656;23.336;2023-03-20T03:17:12;95138.16;;;3.12;100.00
10706;BME280;5404;42.656;23.336;2023-03-20T03:19:41;95161.47;;;3.36;100.00
10706;BME280;5404;42.656;23.336;2023-03-20T03:22:09;95159.31;;;3.33;100.00
10706;BME280;5404;42.656;23.336;2023-03-20T03:24:38;95157.22;;;3.35;100.00
10706;BME280;5404;42.656;23.336;2023-03-20T03:27:30;95166.97;;;3.35;100.00
10706;BME280;5404;42.656;23.336;2023-03-20T03:30:05;95168.22;;;3.32;100.00
10706;BME280;5404;42.656;23.336;2023-03-20T03:35:41;95158.97;;;2.97;100.00
10706;BME280;5404;42.656;23.336;2023-03-20T03:43:17;95149.88;;;2.88;100.00
10706;BME280;5404;42.656;23.336;2023-03-20T03:45:53;95172.31;;;3.07;100.00
10706;BME280;5404;42.656;23.336;2023-03-20T03:48:34;95163.91;;;3.10;100.00
10706;BME280;5404;42.656;23.336;2023-03-20T03:51:09;95135.69;;;2.89;100.00
10706;BME280;5404;42.656;23.336;2023-03-20T03:53:41;95167.59;;;3.09;100.00
10706;BME280;5404;42.656;23.336;2023-03-20T03:56:10;95164.25;;;3.13;100.00
10706;BME280;5404;42.656;23.336;2023-03-20T03:58:47;95168.56;;;3.19;100.00
10706;BME280;5404;42.656;23.336;2023-03-20T04:01:17;95073.81;;;2.70;100.00
10706;BME280;5404;42.656;23.336;2023-03-20T04:03:48;95164.25;;;3.30;100.00
10706;BME280;5404;42.656;23.336;2023-03-20T04:06:15;95158.19;;;3.29;100.00
10706;BME280;5404;42.656;23.336;2023-03-20T04:08:42;95166.41;;;3.33;100.00
10706;BME280;5404;42.656;23.336;2023-03-20T04:11:23;95157.63;;;3.27;100.00
10706;BME280;5404;42.656;23.336;2023-03-20T04:13:50;95161.22;;;3.21;100.00
10706;BME280;5404;42.656;23.336;2023-03-20T04:16:17;95155.25;;;3.09;100.00
10706;BME280;5404;42.656;23.336;2023-03-20T04:18:43;95099.00;;;2.66;100.00
10706;BME280;5404;42.656;23.336;2023-03-20T04:21:10;95157.41;;;2.96;100.00
10706;BME280;5404;42.656;23.336;2023-03-20T04:23:36;95158.00;;;3.03;100.00
10706;BME280;5404;42.656;23.336;2023-03-20T04:26:03;95153.22;;;3.00;100.00
10706;BME280;5404;42.656;23.336;2023-03-20T04:28:29;95156.34;;;2.97;100.00
10706;BME280;5404;42.656;23.336;2023-03-20T04:30:56;95154.13;;;3.05;100.00
10706;BME280;5404;42.656;23.336;2023-03-20T04:33:23;95155.16;;;3.04;100.00
10706;BME280;5404;42.656;23.336;2023-03-20T04:35:49;95153.88;;;3.07;100.00
10706;BME280;5404;42.656;23.336;2023-03-20T04:38:15;95142.72;;;3.00;100.00
10706;BME280;5404;42.656;23.336;2023-03-20T04:40:42;95152.44;;;2.99;100.00
10706;BME280;5404;42.656;23.336;2023-03-20T04:43:08;95162.25;;;3.04;100.00
10706;BME280;5404;42.656;23.336;2023-03-20T04:45:34;95146.06;;;2.95;100.00
10706;BME280;5404;42.656;23.336;2023-03-20T04:47:59;95164.88;;;3.04;100.00
10706;BME280;5404;42.656;23.336;2023-03-20T04:50:27;95161.28;;;2.93;100.00
10706;BME280;5404;42.656;23.336;2023-03-20T04:52:53;95176.44;;;3.03;100.00
10706;BME280;5404;42.656;23.336;2023-03-20T04:55:19;95171.09;;;2.98;100.00
10706;BME280;5404;42.656;23.336;2023-03-20T04:57:44;95179.72;;;3.10;100.00
10706;BME280;5404;42.656;23.336;2023-03-20T05:00:10;95190.66;;;3.18;100.00
10706;BME280;5404;42.656;23.336;2023-03-20T05:02:36;95199.34;;;3.19;100.00
10706;BME280;5404;42.656;23.336;2023-03-20T05:05:01;95187.41;;;3.28;100.00
10706;BME280;5404;42.656;23.336;2023-03-20T05:07:27;95138.41;;;3.10;100.00
10706;BME280;5404;42.656;23.336;2023-03-20T05:09:52;95190.09;;;3.49;100.00
10706;BME280;5404;42.656;23.336;2023-03-20T05:12:18;95187.84;;;3.58;100.00
10706;BME280;5404;42.656;23.336;2023-03-20T05:14:43;95171.25;;;3.58;100.00
10706;BME280;5404;42.656;23.336;2023-03-20T05:17:10;95192.56;;;3.73;100.00
10706;BME280;5404;42.656;23.336;2023-03-20T05:19:35;95184.78;;;3.83;100.00
10706;BME280;5404;42.656;23.336;2023-03-20T05:22:02;95188.84;;;3.90;100.00
10706;BME280;5404;42.656;23.336;2023-03-20T05:24:27;95186.84;;;3.97;100.00
10706;BME280;5404;42.656;23.336;2023-03-20T05:26:53;95198.19;;;4.19;100.00
10706;BME280;5404;42.656;23.336;2023-03-20T05:29:19;95195.72;;;4.34;100.00
10706;BME280;5404;42.656;23.336;2023-03-20T05:31:45;95191.69;;;4.48;100.00
10706;BME280;5404;42.656;23.336;2023-03-20T05:34:11;95182.56;;;4.61;100.00
10706;BME280;5404;42.656;23.336;2023-03-20T05:36:36;95180.09;;;4.76;100.00
10706;BME280;5404;42.656;23.336;2023-03-20T05:39:02;95184.94;;;4.84;100.00
10706;BME280;5404;42.656;23.336;2023-03-20T05:41:29;95187.38;;;4.91;100.00
10706;BME280;5404;42.656;23.336;2023-03-20T05:43:55;95180.91;;;5.03;100.00
10706;BME280;5404;42.656;23.336;2023-03-20T05:46:20;95154.44;;;4.98;100.00
10706;BME280;5404;42.656;23.336;2023-03-20T05:48:47;95163.09;;;5.20;100.00
10706;BME280;5404;42.656;23.336;2023-03-20T05:51:13;95161.63;;;5.34;100.00
10706;BME280;5404;42.656;23.336;2023-03-20T05:53:38;95182.09;;;5.54;100.00
10706;BME280;5404;42.656;23.336;2023-03-20T05:56:04;95178.47;;;5.65;100.00
10706;BME280;5404;42.656;23.336;2023-03-20T05:58:30;95175.09;;;5.74;100.00
10706;BME280;5404;42.656;23.336;2023-03-20T06:00:56;95175.44;;;5.83;100.00
10706;BME280;5404;42.656;23.336;2023-03-20T06:03:22;95170.75;;;5.95;100.00
10706;BME280;5404;42.656;23.336;2023-03-20T06:05:48;95175.09;;;6.16;100.00
10706;BME280;5404;42.656;23.336;2023-03-20T06:08:13;95164.34;;;6.33;100.00
10706;BME280;5404;42.656;23.336;2023-03-20T06:10:40;95168.34;;;6.50;100.00
10706;BME280;5404;42.656;23.336;2023-03-20T06:13:06;95157.56;;;6.57;100.00
10706;BME280;5404;42.656;23.336;2023-03-20T06:15:32;95137.69;;;6.59;100.00
10706;BME280;5404;42.656;23.336;2023-03-20T06:17:58;95155.75;;;6.82;100.00
10706;BME280;5404;42.656;23.336;2023-03-20T06:20:25;95126.34;;;6.74;100.00
10706;BME280;5404;42.656;23.336;2023-03-20T06:22:50;95162.91;;;7.02;100.00
10706;BME280;5404;42.656;23.336;2023-03-20T06:25:17;95156.59;;;7.13;100.00
10706;BME280;5404;42.656;23.336;2023-03-20T06:27:45;95154.75;;;7.24;100.00
10706;BME280;5404;42.656;23.336;2023-03-20T06:30:11;95159.50;;;7.32;100.00
10706;BME280;5404;42.656;23.336;2023-03-20T06:32:36;95161.38;;;7.41;100.00
10706;BME280;5404;42.656;23.336;2023-03-20T06:35:02;95154.75;;;7.44;100.00
10706;BME280;5404;42.656;23.336;2023-03-20T06:37:30;95152.88;;;7.49;100.00
10706;BME280;5404;42.656;23.336;2023-03-20T06:39:55;95144.09;;;7.69;100.00
10706;BME280;5404;42.656;23.336;2023-03-20T06:42:22;95148.31;;;7.85;100.00
10706;BME280;5404;42.656;23.336;2023-03-20T06:44:47;95150.97;;;7.90;100.00
10706;BME280;5404;42.656;23.336;2023-03-20T06:47:13;95144.06;;;7.89;100.00
10706;BME280;5404;42.656;23.336;2023-03-20T06:49:38;95144.88;;;7.94;100.00
10706;BME280;5404;42.656;23.336;2023-03-20T06:52:04;95148.53;;;8.08;100.00
10706;BME280;5404;42.656;23.336;2023-03-20T06:54:30;95137.63;;;8.20;100.00
10706;BME280;5404;42.656;23.336;2023-03-20T06:56:56;95132.81;;;8.32;100.00
10706;BME280;5404;42.656;23.336;2023-03-20T06:59:21;95132.25;;;8.40;100.00
10706;BME280;5404;42.656;23.336;2023-03-20T07:01:46;95127.66;;;8.56;100.00
10706;BME280;5404;42.656;23.336;2023-03-20T07:04:12;95053.47;;;8.25;100.00
10706;BME280;5404;42.656;23.336;2023-03-20T07:06:38;95110.28;;;8.78;100.00
10706;BME280;5404;42.656;23.336;2023-03-20T07:09:04;95122.38;;;8.99;100.00
10706;BME280;5404;42.656;23.336;2023-03-20T07:11:30;95113.19;;;9.15;100.00
10706;BME280;5404;42.656;23.336;2023-03-20T07:13:55;95108.84;;;9.29;100.00
10706;BME280;5404;42.656;23.336;2023-03-20T07:16:21;95110.31;;;9.46;100.00
10706;BME280;5404;42.656;23.336;2023-03-20T07:18:46;95111.19;;;9.65;100.00
10706;BME280;5404;42.656;23.336;2023-03-20T07:21:16;95039.09;;;9.37;100.00
10706;BME280;5404;42.656;23.336;2023-03-20T07:23:43;95104.22;;;9.97;100.00
10706;BME280;5404;42.656;23.336;2023-03-20T07:26:08;95102.91;;;9.95;100.00
10706;BME280;5404;42.656;23.336;2023-03-20T07:28:34;95103.28;;;10.12;100.00
10706;BME280;5404;42.656;23.336;2023-03-20T07:30:59;95103.22;;;10.17;100.00
10706;BME280;5404;42.656;23.336;2023-03-20T07:33:25;95109.31;;;10.41;100.00
10706;BME280;5404;42.656;23.336;2023-03-20T07:35:52;95091.25;;;10.56;100.00
10706;BME280;5404;42.656;23.336;2023-03-20T07:38:18;95096.97;;;10.69;100.00
10706;BME280;5404;42.656;23.336;2023-03-20T07:40:43;95058.22;;;10.57;100.00
10706;BME280;5404;42.656;23.336;2023-03-20T07:43:09;95098.78;;;10.92;100.00
10706;BME280;5404;42.656;23.336;2023-03-20T07:45:34;95094.44;;;10.96;100.00
10706;BME280;5404;42.656;23.336;2023-03-20T07:48:01;95092.72;;;11.05;100.00
10706;BME280;5404;42.656;23.336;2023-03-20T07:50:26;95019.53;;;10.60;100.00
10706;BME280;5404;42.656;23.336;2023-03-20T07:52:55;95099.19;;;11.17;100.00
10706;BME280;5404;42.656;23.336;2023-03-20T07:55:20;95091.63;;;11.24;100.00
10706;BME280;5404;42.656;23.336;2023-03-20T07:57:47;95096.41;;;11.41;100.00
10706;BME280;5404;42.656;23.336;2023-03-20T08:00:14;95102.06;;;11.53;100.00
10706;BME280;5404;42.656;23.336;2023-03-20T08:02:40;95101.41;;;11.61;100.00
10706;BME280;5404;42.656;23.336;2023-03-20T08:05:07;95094.34;;;11.70;100.00
10706;BME280;5404;42.656;23.336;2023-03-20T08:07:33;95094.75;;;11.91;100.00
10706;BME280;5404;42.656;23.336;2023-03-20T08:09:59;95099.13;;;12.00;100.00
10706;BME280;5404;42.656;23.336;2023-03-20T08:12:25;95094.19;;;12.07;100.00
10706;BME280;5404;42.656;23.336;2023-03-20T08:14:55;95090.13;;;12.10;100.00
10706;BME280;5404;42.656;23.336;2023-03-20T08:17:21;95093.31;;;12.12;100.00
10706;BME280;5404;42.656;23.336;2023-03-20T08:19:46;95090.81;;;12.29;100.00
10706;BME280;5404;42.656;23.336;2023-03-20T08:22:12;95090.81;;;12.42;100.00
10706;BME280;5404;42.656;23.336;2023-03-20T08:24:39;95078.66;;;12.50;100.00
10706;BME280;5404;42.656;23.336;2023-03-20T08:27:04;95087.22;;;12.74;100.00
10706;BME280;5404;42.656;23.336;2023-03-20T08:29:30;95090.38;;;12.76;100.00
10706;BME280;5404;42.656;23.336;2023-03-20T08:31:55;95092.06;;;12.72;100.00
10706;BME280;5404;42.656;23.336;2023-03-20T08:34:21;95096.47;;;12.90;100.00
10706;BME280;5404;42.656;23.336;2023-03-20T08:36:47;95094.09;;;13.02;100.00
10706;BME280;5404;42.656;23.336;2023-03-20T08:39:12;95083.19;;;13.12;100.00
10706;BME280;5404;42.656;23.336;2023-03-20T08:41:38;95095.03;;;13.20;100.00
10706;BME280;5404;42.656;23.336;2023-03-20T08:44:07;95093.47;;;13.19;100.00
10706;BME280;5404;42.656;23.336;2023-03-20T08:46:33;95093.09;;;13.12;100.00
10706;BME280;5404;42.656;23.336;2023-03-20T08:48:59;95095.88;;;13.07;100.00
10706;BME280;5404;42.656;23.336;2023-03-20T08:51:25;95085.25;;;13.15;100.00
10706;BME280;5404;42.656;23.336;2023-03-20T08:53:51;95078.34;;;13.23;100.00
10706;BME280;5404;42.656;23.336;2023-03-20T08:56:17;95082.69;;;13.32;100.00
10706;BME280;5404;42.656;23.336;2023-03-20T08:58:43;95077.28;;;13.46;100.00
10706;BME280;5404;42.656;23.336;2023-03-20T09:01:09;95072.28;;;13.53;100.00
10706;BME280;5404;42.656;23.336;2023-03-20T09:03:35;95074.41;;;13.64;100.00
10706;BME280;5404;42.656;23.336;2023-03-20T09:06:04;95040.50;;;13.60;100.00
10706;BME280;5404;42.656;23.336;2023-03-20T09:08:32;95075.88;;;14.10;100.00
10706;BME280;5404;42.656;23.336;2023-03-20T09:10:57;95062.47;;;14.40;98.93
10706;BME280;5404;42.656;23.336;2023-03-20T09:13:23;95052.59;;;15.35;92.47
10706;BME280;5404;42.656;23.336;2023-03-20T09:15:51;95051.88;;;16.64;81.49
10706;BME280;5404;42.656;23.336;2023-03-20T09:18:18;95060.59;;;17.97;66.25
10706;BME280;5404;42.656;23.336;2023-03-20T09:20:43;95049.16;;;18.96;58.66
10706;BME280;5404;42.656;23.336;2023-03-20T09:23:10;95045.44;;;20.11;53.47
10706;BME280;5404;42.656;23.336;2023-03-20T09:25:38;95045.69;;;21.38;49.99
10706;BME280;5404;42.656;23.336;2023-03-20T09:28:03;95037.59;;;22.18;46.01
10706;BME280;5404;42.656;23.336;2023-03-20T09:30:29;95046.41;;;22.82;41.86
10706;BME280;5404;42.656;23.336;2023-03-20T09:32:55;95006.56;;;23.20;38.87
10706;BME280;5404;42.656;23.336;2023-03-20T09:35:21;95037.38;;;23.57;38.58
10706;BME280;5404;42.656;23.336;2023-03-20T09:37:46;95032.72;;;23.90;37.86
10706;BME280;5404;42.656;23.336;2023-03-20T09:40:28;95034.00;;;24.00;36.70
10706;BME280;5404;42.656;23.336;2023-03-20T09:43:09;95034.06;;;24.47;35.90
10706;BME280;5404;42.656;23.336;2023-03-20T09:53:59;94982.66;;;25.89;32.42
10706;BME280;5404;42.656;23.336;2023-03-20T09:56:27;94993.66;;;25.10;33.29
10706;BME280;5404;42.656;23.336;2023-03-20T09:59:00;94993.59;;;24.53;33.76
10706;BME280;5404;42.656;23.336;2023-03-20T10:01:32;94978.91;;;25.25;33.77
10706;BME280;5404;42.656;23.336;2023-03-20T10:04:07;94959.47;;;25.34;33.22
10706;BME280;5404;42.656;23.336;2023-03-20T10:06:33;94978.06;;;25.07;32.96
10706;BME280;5404;42.656;23.336;2023-03-20T10:08:59;94966.00;;;24.58;33.87
10706;BME280;5404;42.656;23.336;2023-03-20T10:11:49;94960.28;;;24.19;33.58
10706;BME280;5404;42.656;23.336;2023-03-20T10:14:51;94964.75;;;23.28;35.27
10706;BME280;5404;42.656;23.336;2023-03-20T10:17:39;94960.09;;;22.72;36.38
10706;BME280;5404;42.656;23.336;2023-03-20T10:20:24;94933.03;;;22.79;36.59
10706;BME280;5404;42.656;23.336;2023-03-20T10:22:59;94960.59;;;23.37;35.87
10706;BME280;5404;42.656;23.336;2023-03-20T10:27:59;94928.47;;;23.50;35.56
10706;BME280;5404;42.656;23.336;2023-03-20T10:30:50;94948.69;;;24.29;34.87
10706;BME280;5404;42.656;23.336;2023-03-20T10:33:39;94946.69;;;24.77;33.57
10706;BME280;5404;42.656;23.336;2023-03-20T10:36:26;94944.47;;;24.93;33.12
10706;BME280;5404;42.656;23.336;2023-03-20T10:39:42;94938.19;;;24.31;33.84
10706;BME280;5404;42.656;23.336;2023-03-20T10:41:55;94928.47;;;24.30;34.86
10706;BME280;5404;42.656;23.336;2023-03-20T10:44:34;94941.13;;;24.59;33.84
10706;BME280;5404;42.656;23.336;2023-03-20T10:47:04;94929.25;;;24.85;33.68
10706;BME280;5404;42.656;23.336;2023-03-20T10:49:45;94924.38;;;25.29;32.94
10706;BME280;5404;42.656;23.336;2023-03-20T10:52:16;94917.06;;;25.44;32.36
10706;BME280;5404;42.656;23.336;2023-03-20T10:54:48;94915.72;;;25.13;32.21
10706;BME280;5404;42.656;23.336;2023-03-20T10:57:24;94912.47;;;24.83;32.99
10706;BME280;5404;42.656;23.336;2023-03-20T10:59:54;94911.66;;;24.79;33.02
10706;BME280;5404;42.656;23.336;2023-03-20T11:02:23;94905.25;;;25.22;32.81
10706;BME280;5404;42.656;23.336;2023-03-20T11:04:49;94901.50;;;25.72;31.67
10706;BME280;5404;42.656;23.336;2023-03-20T11:07:26;94897.28;;;26.03;30.84
10706;BME280;5404;42.656;23.336;2023-03-20T11:12:39;94884.75;;;25.70;31.15
10706;BME280;5404;42.656;23.336;2023-03-20T11:15:33;94891.38;;;25.66;30.59
10706;BME280;5404;42.656;23.336;2023-03-20T11:18:05;94886.25;;;25.40;31.17
10706;BME280;5404;42.656;23.336;2023-03-20T11:20:39;94884.16;;;25.08;31.61
10706;BME280;5404;42.656;23.336;2023-03-20T11:23:14;94878.72;;;25.12;31.39
10706;BME280;5404;42.656;23.336;2023-03-20T11:26:07;94865.88;;;25.12;31.46
10706;BME280;5404;42.656;23.336;2023-03-20T11:28:55;94869.75;;;25.08;31.44
10706;BME280;5404;42.656;23.336;2023-03-20T11:36:28;94851.59;;;24.61;32.56
10706;BME280;5404;42.656;23.336;2023-03-20T11:39:25;94845.56;;;25.03;31.80
10706;BME280;5404;42.656;23.336;2023-03-20T11:41:57;94837.09;;;25.32;31.33
10706;BME280;5404;42.656;23.336;2023-03-20T11:44:31;94838.34;;;25.74;30.65
10706;BME280;5404;42.656;23.336;2023-03-20T11:47:05;94834.81;;;25.73;30.30
10706;BME280;5404;42.656;23.336;2023-03-20T11:50:03;94823.53;;;25.61;30.73
10706;BME280;5404;42.656;23.336;2023-03-20T11:52:40;94819.19;;;25.46;30.77
10706;BME280;5404;42.656;23.336;2023-03-20T11:55:24;94811.72;;;25.18;27.80
10706;BME280;5404;42.656;23.336;2023-03-20T11:57:55;94819.19;;;25.31;27.70
10706;BME280;5404;42.656;23.336;2023-03-20T12:00:25;94812.19;;;25.38;27.01
10706;BME280;5404;42.656;23.336;2023-03-20T12:02:53;94801.31;;;25.76;27.32
10706;BME280;5404;42.656;23.336;2023-03-20T12:07:58;94797.31;;;25.14;26.84
10706;BME280;5404;42.656;23.336;2023-03-20T12:10:29;94796.00;;;24.69;27.75
10706;BME280;5404;42.656;23.336;2023-03-20T12:13:01;94795.34;;;24.18;28.14
10706;BME280;5404;42.656;23.336;2023-03-20T12:15:33;94800.25;;;23.51;28.45
10706;BME280;5404;42.656;23.336;2023-03-20T12:23:46;94785.31;;;23.31;29.61
10706;BME280;5404;42.656;23.336;2023-03-20T12:26:30;94772.97;;;23.00;29.92
10706;BME280;5404;42.656;23.336;2023-03-20T12:29:05;94785.19;;;22.80;30.21
10706;BME280;5404;42.656;23.336;2023-03-20T12:31:39;94779.97;;;22.65;29.57
10706;BME280;5404;42.656;23.336;2023-03-20T12:36:49;94750.84;;;22.32;30.38
10706;BME280;5404;42.656;23.336;2023-03-20T12:39:21;94771.00;;;22.61;29.95
10706;BME280;5404;42.656;23.336;2023-03-20T12:44:52;94769.19;;;22.42;30.41
10706;BME280;5404;42.656;23.336;2023-03-20T12:47:37;94764.09;;;22.37;29.39
10706;BME280;5404;42.656;23.336;2023-03-20T12:50:34;94748.31;;;22.50;29.23
10706;BME280;5404;42.656;23.336;2023-03-20T12:53:24;94753.38;;;22.48;29.48
10706;BME280;5404;42.656;23.336;2023-03-20T13:01:57;94743.03;;;22.97;28.31
10706;BME280;5404;42.656;23.336;2023-03-20T13:07:10;94728.25;;;23.35;28.32
10706;BME280;5404;42.656;23.336;2023-03-20T13:29:10;94693.41;;;23.03;27.77
10706;BME280;5404;42.656;23.336;2023-03-20T13:31:55;94696.25;;;23.18;27.31
10706;BME280;5404;42.656;23.336;2023-03-20T13:37:22;94693.59;;;23.25;26.90
10706;BME280;5404;42.656;23.336;2023-03-20T13:47:54;94682.06;;;23.38;27.54
10706;BME280;5404;42.656;23.336;2023-03-20T13:50:32;94681.31;;;23.45;27.42
10706;BME280;5404;42.656;23.336;2023-03-20T13:56:36;94684.97;;;23.16;27.74
10706;BME280;5404;42.656;23.336;2023-03-20T13:58:59;94669.28;;;22.98;28.13
10706;BME280;5404;42.656;23.336;2023-03-20T14:01:49;94679.34;;;22.94;28.04
10706;BME280;5404;42.656;23.336;2023-03-20T14:04:22;94676.41;;;23.13;28.45
10706;BME280;5404;42.656;23.336;2023-03-20T14:06:52;94670.25;;;23.24;28.30
10706;BME280;5404;42.656;23.336;2023-03-20T14:09:28;94667.88;;;23.19;27.71
10706;BME280;5404;42.656;23.336;2023-03-20T14:12:00;94657.00;;;23.15;27.64
10706;BME280;5404;42.656;23.336;2023-03-20T14:14:31;94643.19;;;23.34;27.93
10706;BME280;5404;42.656;23.336;2023-03-20T14:19:37;94658.47;;;23.60;26.84
10706;BME280;5404;42.656;23.336;2023-03-20T14:22:06;94655.91;;;23.84;26.85
10706;BME280;5404;42.656;23.336;2023-03-20T14:24:38;94653.16;;;23.81;26.49
10706;BME280;5404;42.656;23.336;2023-03-20T14:27:05;94635.66;;;23.71;26.53
10706;BME280;5404;42.656;23.336;2023-03-20T14:29:36;94654.66;;;23.68;26.58
10706;BME280;5404;42.656;23.336;2023-03-20T14:34:47;94651.88;;;23.54;25.72
10706;BME280;5404;42.656;23.336;2023-03-20T14:37:32;94640.28;;;23.67;25.61
10706;BME280;5404;42.656;23.336;2023-03-20T14:40:23;94634.03;;;23.67;25.29
10706;BME280;5404;42.656;23.336;2023-03-20T14:43:55;94631.72;;;23.69;25.85
10706;BME280;5404;42.656;23.336;2023-03-20T14:46:05;94629.00;;;23.69;25.90
10706;BME280;5404;42.656;23.336;2023-03-20T14:48:36;94553.84;;;23.33;25.43
10706;BME280;5404;42.656;23.336;2023-03-20T14:56:53;94631.78;;;23.18;25.58
10706;BME280;5404;42.656;23.336;2023-03-20T14:59:21;94633.53;;;22.93;26.32
10706;BME280;5404;42.656;23.336;2023-03-20T15:04:36;94633.97;;;22.55;26.97
10706;BME280;5404;42.656;23.336;2023-03-20T15:09:30;94631.81;;;22.01;27.42
10706;BME280;5404;42.656;23.336;2023-03-20T15:11:58;94630.69;;;21.76;28.06
10706;BME280;5404;42.656;23.336;2023-03-20T15:14:34;94633.78;;;21.45;27.69
10706;BME280;5404;42.656;23.336;2023-03-20T15:17:02;94594.81;;;21.01;29.01
10706;BME280;5404;42.656;23.336;2023-03-20T15:19:29;94631.69;;;21.09;29.72
10706;BME280;5404;42.656;23.336;2023-03-20T15:21:56;94629.53;;;20.95;30.11
10706;BME280;5404;42.656;23.336;2023-03-20T15:24:28;94632.53;;;20.90;30.51
10706;BME280;5404;42.656;23.336;2023-03-20T15:26:57;94590.34;;;20.63;30.63